sensor_id;sensor_type;location;lat;lon;timestamp;P1;durP1;ratioP1;P2;durP2;ratioP2
15067;SDS011;7633;60.024;18.770;2023-09-19T00:00:22;4.18;;;2.10;;
15067;SDS011;7633;60.024;18.770;2023-09-19T00:02:53;3.58;;;2.05;;
15067;SDS011;7633;60.024;18.770;2023-09-19T00:05:19;2.30;;;1.90;;
15067;SDS011;7633;60.024;18.770;2023-09-19T00:07:52;3.70;;;2.20;;
15067;SDS011;7633;60.024;18.770;2023-09-19T00:10:27;4.55;;;2.17;;
15067;SDS011;7633;60.024;18.770;2023-09-19T00:13:03;1.95;;;1.80;;
15067;SDS011;7633;60.024;18.770;2023-09-19T00:15:39;2.38;;;1.98;;
15067;SDS011;7633;60.024;18.770;2023-09-19T00:18:07;2.38;;;1.98;;
15067;SDS011;7633;60.024;18.770;2023-09-19T00:20:35;3.75;;;2.00;;
15067;SDS011;7633;60.024;18.770;2023-09-19T00:23:01;6.25;;;2.38;;
15067;SDS011;7633;60.024;18.770;2023-09-19T00:25:39;7.18;;;2.65;;
15067;SDS011;7633;60.024;18.770;2023-09-19T00:28:10;3.83;;;2.33;;
15067;SDS011;7633;60.024;18.770;2023-09-19T00:30:36;3.05;;;2.20;;
15067;SDS011;7633;60.024;18.770;2023-09-19T00:33:04;2.92;;;2.38;;
15067;SDS011;7633;60.024;18.770;2023-09-19T00:35:32;5.53;;;2.42;;
15067;SDS011;7633;60.024;18.770;2023-09-19T00:38:03;3.30;;;2.05;;
15067;SDS011;7633;60.024;18.770;2023-09-19T00:40:29;3.97;;;2.50;;
15067;SDS011;7633;60.024;18.770;2023-09-19T00:42:59;4.72;;;2.88;;
15067;SDS011;7633;60.024;18.770;2023-09-19T00:45:28;4.65;;;2.70;;
15067;SDS011;7633;60.024;18.770;2023-09-19T00:47:55;3.72;;;2.70;;
15067;SDS011;7633;60.024;18.770;2023-09-19T00:50:24;4.68;;;3.03;;
15067;SDS011;7633;60.024;18.770;2023-09-19T00:52:53;4.45;;;3.03;;
15067;SDS011;7633;60.024;18.770;2023-09-19T00:55:18;4.72;;;2.92;;
15067;SDS011;7633;60.024;18.770;2023-09-19T00:57:45;6.38;;;2.85;;
15067;SDS011;7633;60.024;18.770;2023-09-19T01:00:10;4.20;;;3.30;;
15067;SDS011;7633;60.024;18.770;2023-09-19T01:02:41;4.65;;;2.83;;
15067;SDS011;7633;60.024;18.770;2023-09-19T01:05:08;3.72;;;3.10;;
15067;SDS011;7633;60.024;18.770;2023-09-19T01:07:33;5.57;;;3.35;;
15067;SDS011;7633;60.024;18.770;2023-09-19T01:10:02;7.38;;;3.70;;
15067;SDS011;7633;60.024;18.770;2023-09-19T01:12:38;5.00;;;3.83;;
15067;SDS011;7633;60.024;18.770;2023-09-19T01:15:14;5.22;;;3.50;;
15067;SDS011;7633;60.024;18.770;2023-09-19T01:17:49;6.05;;;3.60;;
15067;SDS011;7633;60.024;18.770;2023-09-19T01:22:53;3.80;;;3.20;;
15067;SDS011;7633;60.024;18.770;2023-09-19T01:30:17;5.20;;;3.60;;
15067;SDS011;7633;60.024;18.770;2023-09-19T01:32:51;5.13;;;3.55;;
15067;SDS011;7633;60.024;18.770;2023-09-19T01:35:21;4.05;;;2.60;;
15067;SDS011;7633;60.024;18.770;2023-09-19T01:37:47;4.22;;;2.83;;
15067;SDS011;7633;60.024;18.770;2023-09-19T01:40:14;7.13;;;4.10;;
15067;SDS011;7633;60.024;18.770;2023-09-19T01:42:48;5.35;;;3.70;;
15067;SDS011;7633;60.024;18.770;2023-09-19T01:47:53;6.63;;;4.18;;
15067;SDS011;7633;60.024;18.770;2023-09-19T01:50:32;5.82;;;3.83;;
15067;SDS011;7633;60.024;18.770;2023-09-19T01:53:05;6.35;;;3.83;;
15067;SDS011;7633;60.024;18.770;2023-09-19T01:55:34;3.78;;;3.15;;
15067;SDS011;7633;60.024;18.770;2023-09-19T01:58:16;4.78;;;3.92;;
15067;SDS011;7633;60.024;18.770;2023-09-19T02:00:44;6.03;;;4.18;;
15067;SDS011;7633;60.024;18.770;2023-09-19T02:03:11;5.38;;;4.50;;
15067;SDS011;7633;60.024;18.770;2023-09-19T02:05:38;6.82;;;4.28;;
15067;SDS011;7633;60.024;18.770;2023-09-19T02:08:05;4.93;;;3.67;;
15067;SDS011;7633;60.024;18.770;2023-09-19T02:10:31;5.57;;;4.88;;
15067;SDS011;7633;60.024;18.770;2023-09-19T02:12:56;7.25;;;4.65;;
15067;SDS011;7633;60.024;18.770;2023-09-19T02:15:21;8.15;;;4.85;;
15067;SDS011;7633;60.024;18.770;2023-09-19T02:17:47;6.47;;;5.00;;
15067;SDS011;7633;60.024;18.770;2023-09-19T02:20:12;5.28;;;3.95;;
15067;SDS011;7633;60.024;18.770;2023-09-19T02:22:43;4.93;;;4.43;;
15067;SDS011;7633;60.024;18.770;2023-09-19T02:25:09;6.60;;;5.07;;
15067;SDS011;7633;60.024;18.770;2023-09-19T02:27:35;7.00;;;5.55;;
15067;SDS011;7633;60.024;18.770;2023-09-19T02:30:01;5.95;;;4.82;;
15067;SDS011;7633;60.024;18.770;2023-09-19T02:32:29;6.15;;;5.22;;
15067;SDS011;7633;60.024;18.770;2023-09-19T02:34:57;8.20;;;5.93;;
15067;SDS011;7633;60.024;18.770;2023-09-19T02:37:25;7.00;;;5.75;;
15067;SDS011;7633;60.024;18.770;2023-09-19T02:39:50;8.45;;;5.63;;
15067;SDS011;7633;60.024;18.770;2023-09-19T02:42:15;7.03;;;6.03;;
15067;SDS011;7633;60.024;18.770;2023-09-19T02:44:41;9.45;;;6.47;;
15067;SDS011;7633;60.024;18.770;2023-09-19T02:47:09;8.00;;;6.68;;
15067;SDS011;7633;60.024;18.770;2023-09-19T02:49:37;7.70;;;6.63;;
15067;SDS011;7633;60.024;18.770;2023-09-19T02:52:04;8.68;;;6.00;;
15067;SDS011;7633;60.024;18.770;2023-09-19T02:54:31;9.30;;;7.38;;
15067;SDS011;7633;60.024;18.770;2023-09-19T02:57:00;8.77;;;6.20;;
15067;SDS011;7633;60.024;18.770;2023-09-19T02:59:31;7.40;;;5.82;;
15067;SDS011;7633;60.024;18.770;2023-09-19T03:01:59;7.40;;;6.57;;
15067;SDS011;7633;60.024;18.770;2023-09-19T03:04:25;8.07;;;6.93;;
15067;SDS011;7633;60.024;18.770;2023-09-19T03:06:53;8.07;;;6.30;;
15067;SDS011;7633;60.024;18.770;2023-09-19T03:09:27;9.23;;;6.78;;
15067;SDS011;7633;60.024;18.770;2023-09-19T03:11:55;8.50;;;7.13;;
15067;SDS011;7633;60.024;18.770;2023-09-19T03:14:31;9.38;;;7.28;;
15067;SDS011;7633;60.024;18.770;2023-09-19T03:17:01;9.15;;;7.57;;
15067;SDS011;7633;60.024;18.770;2023-09-19T03:19:32;9.98;;;7.47;;
15067;SDS011;7633;60.024;18.770;2023-09-19T03:21:59;10.75;;;8.00;;
15067;SDS011;7633;60.024;18.770;2023-09-19T03:24:28;8.75;;;7.85;;
15067;SDS011;7633;60.024;18.770;2023-09-19T03:26:58;10.68;;;8.07;;
15067;SDS011;7633;60.024;18.770;2023-09-19T03:29:26;11.48;;;7.72;;
15067;SDS011;7633;60.024;18.770;2023-09-19T03:31:59;9.48;;;7.68;;
15067;SDS011;7633;60.024;18.770;2023-09-19T03:34:24;10.20;;;8.13;;
15067;SDS011;7633;60.024;18.770;2023-09-19T03:36:51;11.18;;;8.52;;
15067;SDS011;7633;60.024;18.770;2023-09-19T03:39:17;10.40;;;7.07;;
15067;SDS011;7633;60.024;18.770;2023-09-19T03:41:42;10.63;;;8.43;;
15067;SDS011;7633;60.024;18.770;2023-09-19T03:44:08;10.43;;;8.73;;
15067;SDS011;7633;60.024;18.770;2023-09-19T03:46:34;13.43;;;11.73;;
15067;SDS011;7633;60.024;18.770;2023-09-19T03:49:01;13.50;;;9.38;;
15067;SDS011;7633;60.024;18.770;2023-09-19T03:51:27;10.45;;;9.27;;
15067;SDS011;7633;60.024;18.770;2023-09-19T03:53:53;11.02;;;9.85;;
15067;SDS011;7633;60.024;18.770;2023-09-19T03:56:18;10.18;;;9.18;;
15067;SDS011;7633;60.024;18.770;2023-09-19T03:58:44;10.05;;;9.00;;
15067;SDS011;7633;60.024;18.770;2023-09-19T04:01:09;12.38;;;9.45;;
15067;SDS011;7633;60.024;18.770;2023-09-19T04:03:35;10.73;;;8.70;;
15067;SDS011;7633;60.024;18.770;2023-09-19T04:06:20;13.82;;;10.27;;
15067;SDS011;7633;60.024;18.770;2023-09-19T04:08:45;10.07;;;8.57;;
15067;SDS011;7633;60.024;18.770;2023-09-19T04:11:13;11.38;;;9.85;;
15067;SDS011;7633;60.024;18.770;2023-09-19T04:13:39;11.70;;;9.73;;
15067;SDS011;7633;60.024;18.770;2023-09-19T04:16:04;12.13;;;9.90;;
15067;SDS011;7633;60.024;18.770;2023-09-19T04:18:30;11.85;;;10.07;;
15067;SDS011;7633;60.024;18.770;2023-09-19T04:21:02;11.75;;;9.55;;
15067;SDS011;7633;60.024;18.770;2023-09-19T04:23:29;10.65;;;9.63;;
15067;SDS011;7633;60.024;18.770;2023-09-19T04:25:54;11.68;;;10.15;;
15067;SDS011;7633;60.024;18.770;2023-09-19T04:28:20;13.20;;;10.23;;
15067;SDS011;7633;60.024;18.770;2023-09-19T04:30:45;9.18;;;7.70;;
15067;SDS011;7633;60.024;18.770;2023-09-19T04:33:11;11.07;;;9.52;;
15067;SDS011;7633;60.024;18.770;2023-09-19T04:35:42;12.45;;;10.68;;
15067;SDS011;7633;60.024;18.770;2023-09-19T04:38:08;14.25;;;11.18;;
15067;SDS011;7633;60.024;18.770;2023-09-19T04:40:33;13.23;;;11.27;;
15067;SDS011;7633;60.024;18.770;2023-09-19T04:42:59;11.80;;;10.57;;
15067;SDS011;7633;60.024;18.770;2023-09-19T04:45:26;9.40;;;7.82;;
15067;SDS011;7633;60.024;18.770;2023-09-19T04:47:55;11.85;;;10.35;;
15067;SDS011;7633;60.024;18.770;2023-09-19T04:50:22;12.00;;;10.70;;
15067;SDS011;7633;60.024;18.770;2023-09-19T04:52:51;12.52;;;11.23;;
15067;SDS011;7633;60.024;18.770;2023-09-19T04:55:18;13.45;;;11.98;;
15067;SDS011;7633;60.024;18.770;2023-09-19T04:57:44;11.95;;;10.15;;
15067;SDS011;7633;60.024;18.770;2023-09-19T05:00:13;14.88;;;12.27;;
15067;SDS011;7633;60.024;18.770;2023-09-19T05:02:40;12.10;;;10.43;;
15067;SDS011;7633;60.024;18.770;2023-09-19T05:05:06;14.90;;;11.57;;
15067;SDS011;7633;60.024;18.770;2023-09-19T05:07:33;12.20;;;9.80;;
15067;SDS011;7633;60.024;18.770;2023-09-19T05:09:59;12.60;;;10.98;;
15067;SDS011;7633;60.024;18.770;2023-09-19T05:12:27;13.65;;;11.77;;
15067;SDS011;7633;60.024;18.770;2023-09-19T05:14:52;15.02;;;11.98;;
15067;SDS011;7633;60.024;18.770;2023-09-19T05:17:19;12.88;;;11.38;;
15067;SDS011;7633;60.024;18.770;2023-09-19T05:19:48;12.40;;;10.98;;
15067;SDS011;7633;60.024;18.770;2023-09-19T05:22:14;15.10;;;12.77;;
15067;SDS011;7633;60.024;18.770;2023-09-19T05:24:40;13.35;;;11.27;;
15067;SDS011;7633;60.024;18.770;2023-09-19T05:27:06;12.13;;;10.57;;
15067;SDS011;7633;60.024;18.770;2023-09-19T05:29:33;13.10;;;11.80;;
15067;SDS011;7633;60.024;18.770;2023-09-19T05:31:59;16.05;;;12.65;;
15067;SDS011;7633;60.024;18.770;2023-09-19T05:34:24;13.75;;;12.10;;
15067;SDS011;7633;60.024;18.770;2023-09-19T05:36:53;11.15;;;9.45;;
15067;SDS011;7633;60.024;18.770;2023-09-19T05:39:20;12.35;;;10.38;;
15067;SDS011;7633;60.024;18.770;2023-09-19T05:41:46;12.65;;;10.75;;
15067;SDS011;7633;60.024;18.770;2023-09-19T05:44:12;13.85;;;9.88;;
15067;SDS011;7633;60.024;18.770;2023-09-19T05:46:39;14.85;;;12.70;;
15067;SDS011;7633;60.024;18.770;2023-09-19T05:49:04;13.95;;;12.55;;
15067;SDS011;7633;60.024;18.770;2023-09-19T05:51:33;12.95;;;11.50;;
15067;SDS011;7633;60.024;18.770;2023-09-19T05:54:01;15.75;;;13.40;;
15067;SDS011;7633;60.024;18.770;2023-09-19T05:56:27;12.18;;;10.52;;
15067;SDS011;7633;60.024;18.770;2023-09-19T05:58:52;13.20;;;10.50;;
15067;SDS011;7633;60.024;18.770;2023-09-19T06:01:18;12.63;;;11.35;;
15067;SDS011;7633;60.024;18.770;2023-09-19T06:03:44;14.18;;;12.50;;
15067;SDS011;7633;60.024;18.770;2023-09-19T06:06:10;12.48;;;11.20;;
15067;SDS011;7633;60.024;18.770;2023-09-19T06:08:36;13.27;;;11.27;;
15067;SDS011;7633;60.024;18.770;2023-09-19T06:11:02;11.95;;;9.98;;
15067;SDS011;7633;60.024;18.770;2023-09-19T06:13:30;13.60;;;12.00;;
15067;SDS011;7633;60.024;18.770;2023-09-19T06:15:58;14.38;;;12.95;;
15067;SDS011;7633;60.024;18.770;2023-09-19T06:18:26;13.02;;;11.60;;
15067;SDS011;7633;60.024;18.770;2023-09-19T06:20:51;15.27;;;13.52;;
15067;SDS011;7633;60.024;18.770;2023-09-19T06:23:17;16.35;;;12.95;;
15067;SDS011;7633;60.024;18.770;2023-09-19T06:25:43;15.30;;;13.68;;
15067;SDS011;7633;60.024;18.770;2023-09-19T06:28:08;12.73;;;11.52;;
15067;SDS011;7633;60.024;18.770;2023-09-19T06:30:37;13.82;;;12.38;;
15067;SDS011;7633;60.024;18.770;2023-09-19T06:33:07;14.73;;;13.07;;
15067;SDS011;7633;60.024;18.770;2023-09-19T06:35:33;14.68;;;12.68;;
15067;SDS011;7633;60.024;18.770;2023-09-19T06:38:03;13.32;;;12.02;;
15067;SDS011;7633;60.024;18.770;2023-09-19T06:40:29;14.75;;;13.27;;
15067;SDS011;7633;60.024;18.770;2023-09-19T06:42:56;14.43;;;12.98;;
15067;SDS011;7633;60.024;18.770;2023-09-19T06:45:21;13.32;;;12.02;;
15067;SDS011;7633;60.024;18.770;2023-09-19T06:47:51;13.93;;;12.32;;
15067;SDS011;7633;60.024;18.770;2023-09-19T06:50:19;15.88;;;13.18;;
15067;SDS011;7633;60.024;18.770;2023-09-19T06:52:47;13.05;;;11.75;;
15067;SDS011;7633;60.024;18.770;2023-09-19T06:55:15;13.68;;;12.30;;
15067;SDS011;7633;60.024;18.770;2023-09-19T06:57:42;13.95;;;11.27;;
15067;SDS011;7633;60.024;18.770;2023-09-19T07:00:14;14.10;;;12.52;;
15067;SDS011;7633;60.024;18.770;2023-09-19T07:02:45;14.95;;;11.40;;
15067;SDS011;7633;60.024;18.770;2023-09-19T07:05:10;12.98;;;11.25;;
15067;SDS011;7633;60.024;18.770;2023-09-19T07:07:36;11.23;;;9.75;;
15067;SDS011;7633;60.024;18.770;2023-09-19T07:10:02;11.88;;;10.63;;
15067;SDS011;7633;60.024;18.770;2023-09-19T07:12:27;12.13;;;10.88;;
15067;SDS011;7633;60.024;18.770;2023-09-19T07:14:53;11.90;;;10.45;;
15067;SDS011;7633;60.024;18.770;2023-09-19T07:17:18;11.40;;;10.30;;
15067;SDS011;7633;60.024;18.770;2023-09-19T07:19:44;12.00;;;10.20;;
15067;SDS011;7633;60.024;18.770;2023-09-19T07:22:21;12.13;;;10.93;;
15067;SDS011;7633;60.024;18.770;2023-09-19T07:24:46;10.73;;;9.63;;
15067;SDS011;7633;60.024;18.770;2023-09-19T07:27:14;11.25;;;10.23;;
15067;SDS011;7633;60.024;18.770;2023-09-19T07:29:40;13.48;;;10.57;;
15067;SDS011;7633;60.024;18.770;2023-09-19T07:32:05;9.70;;;8.57;;
15067;SDS011;7633;60.024;18.770;2023-09-19T07:34:32;12.45;;;9.40;;
15067;SDS011;7633;60.024;18.770;2023-09-19T07:36:57;13.80;;;10.02;;
15067;SDS011;7633;60.024;18.770;2023-09-19T07:39:24;10.80;;;9.68;;
15067;SDS011;7633;60.024;18.770;2023-09-19T07:41:49;9.88;;;8.98;;
15067;SDS011;7633;60.024;18.770;2023-09-19T07:44:15;10.68;;;9.57;;
15067;SDS011;7633;60.024;18.770;2023-09-19T07:46:40;11.32;;;10.23;;
15067;SDS011;7633;60.024;18.770;2023-09-19T07:49:06;11.75;;;10.55;;
15067;SDS011;7633;60.024;18.770;2023-09-19T07:51:31;12.40;;;10.90;;
15067;SDS011;7633;60.024;18.770;2023-09-19T07:53:58;11.68;;;10.50;;
15067;SDS011;7633;60.024;18.770;2023-09-19T07:56:24;12.48;;;11.18;;
15067;SDS011;7633;60.024;18.770;2023-09-19T07:58:51;12.40;;;11.30;;
15067;SDS011;7633;60.024;18.770;2023-09-19T08:01:18;13.32;;;11.48;;
15067;SDS011;7633;60.024;18.770;2023-09-19T08:03:43;11.50;;;10.48;;
15067;SDS011;7633;60.024;18.770;2023-09-19T08:06:11;13.23;;;11.23;;
15067;SDS011;7633;60.024;18.770;2023-09-19T08:08:38;10.43;;;9.43;;
15067;SDS011;7633;60.024;18.770;2023-09-19T08:11:04;11.07;;;10.07;;
15067;SDS011;7633;60.024;18.770;2023-09-19T08:13:38;11.50;;;10.38;;
15067;SDS011;7633;60.024;18.770;2023-09-19T08:16:12;11.32;;;10.13;;
15067;SDS011;7633;60.024;18.770;2023-09-19T08:18:38;11.13;;;9.68;;
15067;SDS011;7633;60.024;18.770;2023-09-19T08:21:05;11.52;;;10.43;;
15067;SDS011;7633;60.024;18.770;2023-09-19T08:23:40;9.52;;;8.65;;
15067;SDS011;7633;60.024;18.770;2023-09-19T08:26:07;10.68;;;9.57;;
15067;SDS011;7633;60.024;18.770;2023-09-19T08:28:39;10.85;;;9.77;;
15067;SDS011;7633;60.024;18.770;2023-09-19T08:31:08;10.25;;;9.07;;
15067;SDS011;7633;60.024;18.770;2023-09-19T08:33:34;10.25;;;9.35;;
15067;SDS011;7633;60.024;18.770;2023-09-19T08:36:02;9.93;;;8.93;;
15067;SDS011;7633;60.024;18.770;2023-09-19T08:38:31;10.10;;;9.15;;
15067;SDS011;7633;60.024;18.770;2023-09-19T08:41:04;9.60;;;8.70;;
15067;SDS011;7633;60.024;18.770;2023-09-19T08:43:31;9.52;;;8.52;;
15067;SDS011;7633;60.024;18.770;2023-09-19T08:46:09;9.73;;;8.77;;
15067;SDS011;7633;60.024;18.770;2023-09-19T08:48:39;8.88;;;8.07;;
15067;SDS011;7633;60.024;18.770;2023-09-19T08:51:10;8.60;;;7.70;;
15067;SDS011;7633;60.024;18.770;2023-09-19T08:56:07;7.00;;;6.00;;
15067;SDS011;7633;60.024;18.770;2023-09-19T08:58:34;7.60;;;6.88;;
15067;SDS011;7633;60.024;18.770;2023-09-19T09:01:05;7.00;;;6.30;;
15067;SDS011;7633;60.024;18.770;2023-09-19T09:03:34;6.93;;;6.32;;
15067;SDS011;7633;60.024;18.770;2023-09-19T09:06:03;6.88;;;6.30;;
15067;SDS011;7633;60.024;18.770;2023-09-19T09:08:29;7.07;;;6.40;;
15067;SDS011;7633;60.024;18.770;2023-09-19T09:10:55;6.57;;;6.00;;
15067;SDS011;7633;60.024;18.770;2023-09-19T09:13:22;6.50;;;5.90;;
15067;SDS011;7633;60.024;18.770;2023-09-19T09:15:51;6.32;;;5.82;;
15067;SDS011;7633;60.024;18.770;2023-09-19T09:18:16;6.50;;;5.90;;
15067;SDS011;7633;60.024;18.770;2023-09-19T09:20:46;6.68;;;6.10;;
15067;SDS011;7633;60.024;18.770;2023-09-19T09:23:13;7.70;;;6.90;;
15067;SDS011;7633;60.024;18.770;2023-09-19T09:25:52;8.50;;;7.50;;
15067;SDS011;7633;60.024;18.770;2023-09-19T09:28:25;8.00;;;7.22;;
15067;SDS011;7633;60.024;18.770;2023-09-19T09:30:51;8.40;;;7.65;;
15067;SDS011;7633;60.024;18.770;2023-09-19T09:33:17;7.10;;;6.50;;
15067;SDS011;7633;60.024;18.770;2023-09-19T09:35:47;9.32;;;8.50;;
15067;SDS011;7633;60.024;18.770;2023-09-19T09:38:13;9.02;;;7.60;;
15067;SDS011;7633;60.024;18.770;2023-09-19T09:40:51;9.10;;;8.20;;
15067;SDS011;7633;60.024;18.770;2023-09-19T09:43:29;9.18;;;8.32;;
15067;SDS011;7633;60.024;18.770;2023-09-19T09:46:11;9.77;;;8.57;;
15067;SDS011;7633;60.024;18.770;2023-09-19T09:54:25;10.07;;;9.00;;
15067;SDS011;7633;60.024;18.770;2023-09-19T09:57:02;10.07;;;9.18;;
15067;SDS011;7633;60.024;18.770;2023-09-19T09:59:54;10.18;;;9.18;;
15067;SDS011;7633;60.024;18.770;2023-09-19T10:02:40;9.30;;;8.40;;
15067;SDS011;7633;60.024;18.770;2023-09-19T10:05:24;9.40;;;8.45;;
15067;SDS011;7633;60.024;18.770;2023-09-19T10:07:52;9.10;;;8.35;;
15067;SDS011;7633;60.024;18.770;2023-09-19T10:10:31;8.52;;;7.65;;
15067;SDS011;7633;60.024;18.770;2023-09-19T10:13:19;8.38;;;7.68;;
15067;SDS011;7633;60.024;18.770;2023-09-19T10:15:48;8.00;;;7.40;;
15067;SDS011;7633;60.024;18.770;2023-09-19T10:18:26;9.70;;;8.45;;
15067;SDS011;7633;60.024;18.770;2023-09-19T10:20:54;8.35;;;7.63;;
15067;SDS011;7633;60.024;18.770;2023-09-19T10:23:26;8.73;;;7.90;;
15067;SDS011;7633;60.024;18.770;2023-09-19T10:25:54;8.48;;;7.72;;
15067;SDS011;7633;60.024;18.770;2023-09-19T10:28:20;7.70;;;7.00;;
15067;SDS011;7633;60.024;18.770;2023-09-19T10:30:52;8.43;;;7.63;;
15067;SDS011;7633;60.024;18.770;2023-09-19T10:33:22;8.30;;;7.60;;
15067;SDS011;7633;60.024;18.770;2023-09-19T10:35:51;12.80;;;7.40;;
15067;SDS011;7633;60.024;18.770;2023-09-19T10:38:17;8.60;;;7.05;;
15067;SDS011;7633;60.024;18.770;2023-09-19T10:40:50;7.68;;;6.95;;
15067;SDS011;7633;60.024;18.770;2023-09-19T10:43:18;8.07;;;7.30;;
15067;SDS011;7633;60.024;18.770;2023-09-19T10:45:45;7.32;;;6.60;;
15067;SDS011;7633;60.024;18.770;2023-09-19T10:48:17;8.55;;;6.88;;
15067;SDS011;7633;60.024;18.770;2023-09-19T10:53:56;7.63;;;6.90;;
15067;SDS011;7633;60.024;18.770;2023-09-19T10:56:46;7.00;;;6.30;;
15067;SDS011;7633;60.024;18.770;2023-09-19T10:59:19;7.20;;;6.50;;
15067;SDS011;7633;60.024;18.770;2023-09-19T11:01:49;7.38;;;6.63;;
15067;SDS011;7633;60.024;18.770;2023-09-19T11:09:49;6.80;;;6.22;;
15067;SDS011;7633;60.024;18.770;2023-09-19T11:15:01;7.40;;;6.60;;
15067;SDS011;7633;60.024;18.770;2023-09-19T11:17:30;6.97;;;6.28;;
15067;SDS011;7633;60.024;18.770;2023-09-19T11:30:40;9.48;;;5.80;;
15067;SDS011;7633;60.024;18.770;2023-09-19T11:33:15;6.10;;;5.50;;
15067;SDS011;7633;60.024;18.770;2023-09-19T11:46:54;4.30;;;3.63;;
15067;SDS011;7633;60.024;18.770;2023-09-19T11:49:40;5.10;;;4.43;;
15067;SDS011;7633;60.024;18.770;2023-09-19T11:52:08;5.15;;;4.75;;
15067;SDS011;7633;60.024;18.770;2023-09-19T11:55:00;5.63;;;4.88;;
15067;SDS011;7633;60.024;18.770;2023-09-19T11:57:43;4.90;;;4.47;;
15067;SDS011;7633;60.024;18.770;2023-09-19T12:00:16;5.82;;;4.32;;
15067;SDS011;7633;60.024;18.770;2023-09-19T12:02:44;5.72;;;4.57;;
15067;SDS011;7633;60.024;18.770;2023-09-19T12:05:11;4.85;;;4.20;;
15067;SDS011;7633;60.024;18.770;2023-09-19T12:07:44;4.55;;;4.25;;
15067;SDS011;7633;60.024;18.770;2023-09-19T12:10:16;4.45;;;4.07;;
15067;SDS011;7633;60.024;18.770;2023-09-19T12:13:01;4.22;;;3.83;;
15067;SDS011;7633;60.024;18.770;2023-09-19T12:15:29;4.85;;;4.45;;
15067;SDS011;7633;60.024;18.770;2023-09-19T12:18:01;5.25;;;4.60;;
15067;SDS011;7633;60.024;18.770;2023-09-19T12:23:12;4.90;;;4.40;;
15067;SDS011;7633;60.024;18.770;2023-09-19T12:25:42;5.05;;;4.47;;
15067;SDS011;7633;60.024;18.770;2023-09-19T12:28:11;4.40;;;3.90;;
15067;SDS011;7633;60.024;18.770;2023-09-19T12:30:37;2.38;;;2.17;;
15067;SDS011;7633;60.024;18.770;2023-09-19T12:33:16;3.08;;;2.47;;
15067;SDS011;7633;60.024;18.770;2023-09-19T12:35:48;2.20;;;1.95;;
15067;SDS011;7633;60.024;18.770;2023-09-19T12:38:26;2.05;;;1.85;;
15067;SDS011;7633;60.024;18.770;2023-09-19T12:40:58;2.33;;;2.13;;
15067;SDS011;7633;60.024;18.770;2023-09-19T12:43:31;1.80;;;1.52;;
15067;SDS011;7633;60.024;18.770;2023-09-19T12:46:01;3.03;;;2.10;;
15067;SDS011;7633;60.024;18.770;2023-09-19T12:48:33;1.88;;;1.70;;
15067;SDS011;7633;60.024;18.770;2023-09-19T12:51:09;2.10;;;1.95;;
15067;SDS011;7633;60.024;18.770;2023-09-19T12:56:08;4.22;;;1.70;;
15067;SDS011;7633;60.024;18.770;2023-09-19T12:58:57;1.92;;;1.50;;
15067;SDS011;7633;60.024;18.770;2023-09-19T13:01:25;1.92;;;1.40;;
15067;SDS011;7633;60.024;18.770;2023-09-19T13:06:43;1.58;;;1.40;;
15067;SDS011;7633;60.024;18.770;2023-09-19T13:09:09;1.80;;;1.40;;
15067;SDS011;7633;60.024;18.770;2023-09-19T13:11:36;2.15;;;1.48;;
15067;SDS011;7633;60.024;18.770;2023-09-19T13:17:00;2.00;;;1.67;;
15067;SDS011;7633;60.024;18.770;2023-09-19T13:19:46;2.15;;;1.25;;
15067;SDS011;7633;60.024;18.770;2023-09-19T13:22:37;1.48;;;1.00;;
15067;SDS011;7633;60.024;18.770;2023-09-19T13:25:10;2.00;;;1.30;;
15067;SDS011;7633;60.024;18.770;2023-09-19T13:27:46;2.05;;;1.30;;
15067;SDS011;7633;60.024;18.770;2023-09-19T13:30:19;1.50;;;1.40;;
15067;SDS011;7633;60.024;18.770;2023-09-19T13:32:45;2.20;;;1.15;;
15067;SDS011;7633;60.024;18.770;2023-09-19T13:35:13;1.35;;;0.95;;
15067;SDS011;7633;60.024;18.770;2023-09-19T13:37:42;2.33;;;1.02;;
15067;SDS011;7633;60.024;18.770;2023-09-19T13:40:17;0.82;;;0.82;;
15067;SDS011;7633;60.024;18.770;2023-09-19T13:42:45;0.93;;;0.93;;
15067;SDS011;7633;60.024;18.770;2023-09-19T13:45:10;1.17;;;1.05;;
15067;SDS011;7633;60.024;18.770;2023-09-19T13:47:42;2.08;;;1.30;;
15067;SDS011;7633;60.024;18.770;2023-09-19T13:50:09;2.63;;;1.02;;
15067;SDS011;7633;60.024;18.770;2023-09-19T13:52:34;1.50;;;1.40;;
15067;SDS011;7633;60.024;18.770;2023-09-19T13:55:00;2.08;;;1.10;;
15067;SDS011;7633;60.024;18.770;2023-09-19T13:57:26;1.67;;;1.02;;
15067;SDS011;7633;60.024;18.770;2023-09-19T13:59:55;1.40;;;1.15;;
15067;SDS011;7633;60.024;18.770;2023-09-19T14:02:21;3.05;;;1.63;;
15067;SDS011;7633;60.024;18.770;2023-09-19T14:04:55;2.03;;;1.40;;
15067;SDS011;7633;60.024;18.770;2023-09-19T14:07:20;1.90;;;1.10;;
15067;SDS011;7633;60.024;18.770;2023-09-19T14:09:48;1.98;;;1.23;;
15067;SDS011;7633;60.024;18.770;2023-09-19T14:12:14;2.15;;;1.20;;
15067;SDS011;7633;60.024;18.770;2023-09-19T14:14:40;1.67;;;1.33;;
15067;SDS011;7633;60.024;18.770;2023-09-19T14:17:07;2.67;;;1.10;;
15067;SDS011;7633;60.024;18.770;2023-09-19T14:19:35;2.55;;;1.55;;
15067;SDS011;7633;60.024;18.770;2023-09-19T14:22:03;1.02;;;0.93;;
15067;SDS011;7633;60.024;18.770;2023-09-19T14:24:32;2.30;;;1.20;;
15067;SDS011;7633;60.024;18.770;2023-09-19T14:26:58;2.33;;;1.25;;
15067;SDS011;7633;60.024;18.770;2023-09-19T14:29:24;1.50;;;1.02;;
15067;SDS011;7633;60.024;18.770;2023-09-19T14:31:50;2.13;;;1.10;;
15067;SDS011;7633;60.024;18.770;2023-09-19T14:34:17;2.05;;;1.17;;
15067;SDS011;7633;60.024;18.770;2023-09-19T14:36:42;1.60;;;1.17;;
15067;SDS011;7633;60.024;18.770;2023-09-19T14:39:08;3.10;;;1.30;;
15067;SDS011;7633;60.024;18.770;2023-09-19T14:41:33;2.00;;;1.10;;
15067;SDS011;7633;60.024;18.770;2023-09-19T14:43:59;1.70;;;1.00;;
15067;SDS011;7633;60.024;18.770;2023-09-19T14:46:24;2.92;;;1.30;;
15067;SDS011;7633;60.024;18.770;2023-09-19T14:48:52;1.63;;;0.98;;
15067;SDS011;7633;60.024;18.770;2023-09-19T14:51:18;2.67;;;1.10;;
15067;SDS011;7633;60.024;18.770;2023-09-19T14:53:44;1.67;;;1.20;;
15067;SDS011;7633;60.024;18.770;2023-09-19T14:56:11;3.45;;;1.33;;
15067;SDS011;7633;60.024;18.770;2023-09-19T14:58:37;1.23;;;1.10;;
15067;SDS011;7633;60.024;18.770;2023-09-19T15:03:30;2.17;;;1.30;;
15067;SDS011;7633;60.024;18.770;2023-09-19T15:06:03;3.13;;;1.60;;
15067;SDS011;7633;60.024;18.770;2023-09-19T15:08:34;0.77;;;0.60;;
15067;SDS011;7633;60.024;18.770;2023-09-19T15:11:01;1.05;;;0.80;;
15067;SDS011;7633;60.024;18.770;2023-09-19T15:13:30;1.23;;;0.80;;
15067;SDS011;7633;60.024;18.770;2023-09-19T15:16:03;1.85;;;1.25;;
15067;SDS011;7633;60.024;18.770;2023-09-19T15:18:29;1.73;;;0.90;;
15067;SDS011;7633;60.024;18.770;2023-09-19T15:20:56;1.70;;;1.00;;
15067;SDS011;7633;60.024;18.770;2023-09-19T15:23:23;1.35;;;0.90;;
15067;SDS011;7633;60.024;18.770;2023-09-19T15:25:49;1.92;;;0.90;;
15067;SDS011;7633;60.024;18.770;2023-09-19T15:28:14;2.72;;;1.25;;
15067;SDS011;7633;60.024;18.770;2023-09-19T15:30:39;2.17;;;1.35;;
15067;SDS011;7633;60.024;18.770;2023-09-19T15:33:05;2.70;;;1.20;;
15067;SDS011;7633;60.024;18.770;2023-09-19T15:35:31;2.53;;;0.75;;
15067;SDS011;7633;60.024;18.770;2023-09-19T15:37:58;2.38;;;0.95;;
15067;SDS011;7633;60.024;18.770;2023-09-19T15:40:26;1.92;;;0.93;;
15067;SDS011;7633;60.024;18.770;2023-09-19T15:42:52;1.45;;;0.95;;
15067;SDS011;7633;60.024;18.770;2023-09-19T15:45:19;1.58;;;0.80;;
15067;SDS011;7633;60.024;18.770;2023-09-19T15:47:44;2.80;;;1.08;;
15067;SDS011;7633;60.024;18.770;2023-09-19T15:50:10;1.10;;;0.88;;
15067;SDS011;7633;60.024;18.770;2023-09-19T15:52:38;1.00;;;0.65;;
15067;SDS011;7633;60.024;18.770;2023-09-19T15:55:05;2.17;;;1.30;;